Terminal Aerodrome Forecast
Issued by NWS Louisville, KY

Home | Current Version | Previous Version | Text Only | Print | Product List | Glossary On
Versions: 1 2 3 4 5 6 7 8 9 10 11 12 13 14 15 16 17 18 19
000
FTUS43 KLMK 251731
TAFBWG
TAF
KBWG 251731Z 2518/2618 17018G28KT P6SM SCT040
     FM252300 17015G23KT 6SM -SHRA VCTS BKN040CB
     FM260400 17008KT 5SM -SHRA BR BKN025
     FM260900 18008KT P6SM VCSH BKN015=

USA.gov is the U.S. government's official web portal to all federal, state and local government web resources and services.